^^
Meteo Knjazevac Station Historical Data
Daily Summary for March 3, 2021 Units:  Both    English   Metric
Daily Weekly Monthly Yearly Custom
  High: Low: Average:
Temperature: 50.2 °F /  10.1 °C 43.7 °F /  6.5 °C 46.4 °F /  8 °C
Dew Point: 46.2 °F /  7.9 °C 42.4 °F /  5.8 °C 44 °F /  6.7 °C
Humidity: 95% 86% 92%
Wind Speed: 2mph /  3.2km/h - 0.4mph /  0.6km/h
Wind Gust: 4mph /  6.4km/h - -
Wind- - West
Pressure: 30.20 in /  1022.6 hPa 30.19 in /  1022.2 hPa -
Precipitation: 0.00 in /  0 mm    
Historical Graphs
 
 
Tabular Data for March 3, 2021
Time Temperature Dew Point Pressure Wind Wind Speed Wind Gust Humidity Rainfall Rate (Hourly) solar Conditions
00:00 50.2 °F /  10.1 °C 46.2 °F /  7.9 °C 30.19in /  1022.2hPa NE 1mph /  1.6km/h 2mph /  3.2km/h 86% 0.00in /  0mm 0 W/m2
00:10 49.9 °F /  9.9 °C 45.9 °F /  7.7 °C 30.19in /  1022.2hPa Calm   2mph /  3.2km/h 86% 0.00in /  0mm 0 W/m2
00:20 49.3 °F /  9.6 °C 45.9 °F /  7.7 °C 30.19in /  1022.2hPa Calm   2mph /  3.2km/h 88% 0.00in /  0mm 0 W/m2
00:30 49.1 °F /  9.5 °C 46 °F /  7.8 °C 30.19in /  1022.2hPa Calm   2mph /  3.2km/h 89% 0.00in /  0mm 0 W/m2
00:40 48.7 °F /  9.3 °C 45.6 °F /  7.6 °C 30.19in /  1022.2hPa Calm   2mph /  3.2km/h 89% 0.00in /  0mm 0 W/m2
00:50 48.6 °F /  9.2 °C 45.5 °F /  7.5 °C 30.19in /  1022.2hPa Calm   2mph /  3.2km/h 89% 0.00in /  0mm 0 W/m2
01:00 48 °F /  8.9 °C 44.9 °F /  7.2 °C 30.19in /  1022.2hPa Calm   1mph /  1.6km/h 89% 0.00in /  0mm 0 W/m2
01:10 47.7 °F /  8.7 °C 44.9 °F /  7.2 °C 30.19in /  1022.2hPa Calm   1mph /  1.6km/h 90% 0.00in /  0mm 0 W/m2
01:20 47.5 °F /  8.6 °C 44.7 °F /  7.1 °C 30.19in /  1022.2hPa Calm   1mph /  1.6km/h 90% 0.00in /  0mm 0 W/m2
01:30 47.1 °F /  8.4 °C 44.6 °F /  7 °C 30.19in /  1022.2hPa NW 1mph /  1.6km/h 2mph /  3.2km/h 91% 0.00in /  0mm 0 W/m2
01:40 46.8 °F /  8.2 °C 44.3 °F /  6.8 °C 30.19in /  1022.2hPa Calm   2mph /  3.2km/h 91% 0.00in /  0mm 0 W/m2
01:50 46.4 °F /  8 °C 43.9 °F /  6.6 °C 30.19in /  1022.2hPa Calm   2mph /  3.2km/h 91% 0.00in /  0mm 0 W/m2
02:00 46 °F /  7.8 °C 43.6 °F /  6.4 °C 30.19in /  1022.2hPa West 1mph /  1.6km/h 2mph /  3.2km/h 91% 0.00in /  0mm 0 W/m2
02:10 45.9 °F /  7.7 °C 44 °F /  6.7 °C 30.19in /  1022.2hPa Calm   1mph /  1.6km/h 93% 0.00in /  0mm 0 W/m2
02:20 45.7 °F /  7.6 °C 43.8 °F /  6.6 °C 30.19in /  1022.2hPa Calm   2mph /  3.2km/h 93% 0.00in /  0mm 0 W/m2
02:30 45.3 °F /  7.4 °C 43.4 °F /  6.3 °C 30.19in /  1022.2hPa West 2mph /  3.2km/h 2mph /  3.2km/h 93% 0.00in /  0mm 0 W/m2
02:40 45 °F /  7.2 °C 43.1 °F /  6.2 °C 30.19in /  1022.2hPa Calm   2mph /  3.2km/h 93% 0.00in /  0mm 0 W/m2
02:50 45 °F /  7.2 °C 43.3 °F /  6.3 °C 30.20in /  1022.6hPa NNW 1mph /  1.6km/h 2mph /  3.2km/h 94% 0.00in /  0mm 0 W/m2
03:00 44.9 °F /  7.2 °C 43.3 °F /  6.3 °C 30.20in /  1022.6hPa Calm   1mph /  1.6km/h 94% 0.00in /  0mm 0 W/m2
03:10 44.6 °F /  7 °C 42.9 °F /  6.1 °C 30.20in /  1022.6hPa WNW 1mph /  1.6km/h 2mph /  3.2km/h 94% 0.00in /  0mm 0 W/m2
03:20 44.2 °F /  6.8 °C 42.6 °F /  5.9 °C 30.20in /  1022.6hPa Calm   2mph /  3.2km/h 94% 0.00in /  0mm 0 W/m2
03:30 44.1 °F /  6.7 °C 42.4 °F /  5.8 °C 30.20in /  1022.6hPa West 1mph /  1.6km/h 4mph /  6.4km/h 94% 0.00in /  0mm 0 W/m2
03:40 44.1 °F /  6.7 °C 42.7 °F /  5.9 °C 30.20in /  1022.6hPa NNW 1mph /  1.6km/h 2mph /  3.2km/h 95% 0.00in /  0mm 0 W/m2
03:50 44.1 °F /  6.7 °C 42.7 °F /  5.9 °C 30.20in /  1022.6hPa Calm   2mph /  3.2km/h 95% 0.00in /  0mm 0 W/m2
04:00 43.9 °F /  6.6 °C 42.5 °F /  5.8 °C 30.20in /  1022.6hPa NW 1mph /  1.6km/h 2mph /  3.2km/h 95% 0.00in /  0mm 0 W/m2
04:10 43.7 °F /  6.5 °C 42.4 °F /  5.8 °C 30.20in /  1022.6hPa Calm   3mph /  4.8km/h 95% 0.00in /  0mm 0 W/m2
Knjazevac, Serbia
Compliments of Weather Underground - 2 mb